Time;durP1;ratioP1;P1;durP2;ratioP2;P2;SDS_P1;SDS_P2;PMS_P1;PMS_P2;Temp;Humidity;BMP_temperature;BMP_pressure;BME280_temperature;BME280_humidity;BME280_pressure;Samples;Min_cycle;Max_cycle;Signal;HPM_P1;HPM_P2
2023/06/19 00:00:15;;;;;;;9.75;6.28;;;;;;;;;;5050761;28;20124;-61
2023/06/19 00:03:01;;;;;;;9.70;6.35;;;;;;;;;;5032236;28;20575;-61
2023/06/19 00:05:27;;;;;;;8.30;6.38;;;;;;;;;;5036269;28;20057;-60
2023/06/19 00:07:55;;;;;;;15.15;7.30;;;;;;;;;;5045059;28;20052;-62
2023/06/19 00:10:21;;;;;;;9.43;6.40;;;;;;;;;;5037699;28;20048;-61
2023/06/19 00:12:47;;;;;;;15.60;7.18;;;;;;;;;;5046403;28;20056;-62
2023/06/19 00:15:14;;;;;;;13.40;6.22;;;;;;;;;;5049824;28;20048;-59
2023/06/19 00:17:41;;;;;;;9.88;6.65;;;;;;;;;;5049463;28;20504;-60
2023/06/19 00:20:09;;;;;;;10.93;6.55;;;;;;;;;;5043666;28;20626;-60
2023/06/19 00:22:37;;;;;;;10.48;6.53;;;;;;;;;;5049260;28;20345;-59
2023/06/19 00:25:03;;;;;;;18.60;6.80;;;;;;;;;;5047260;28;20053;-58
2023/06/19 00:27:29;;;;;;;12.80;6.57;;;;;;;;;;5043904;28;20055;-61
2023/06/19 00:30:01;;;;;;;10.00;6.03;;;;;;;;;;5044387;28;20179;-60
2023/06/19 00:32:28;;;;;;;11.75;6.47;;;;;;;;;;5041022;28;20045;-62
2023/06/19 00:34:57;;;;;;;9.98;6.68;;;;;;;;;;5048548;28;20049;-61
2023/06/19 00:37:23;;;;;;;10.82;6.50;;;;;;;;;;5048399;28;20059;-60
2023/06/19 00:39:49;;;;;;;11.15;6.40;;;;;;;;;;5047465;28;20045;-60
2023/06/19 00:42:15;;;;;;;10.35;5.97;;;;;;;;;;5060612;28;20053;-62
2023/06/19 00:44:41;;;;;;;14.20;6.35;;;;;;;;;;5049009;28;20054;-61
2023/06/19 00:47:07;;;;;;;7.70;6.07;;;;;;;;;;5044259;28;20156;-60
2023/06/19 00:49:33;;;;;;;10.55;6.07;;;;;;;;;;5042950;28;20484;-60
2023/06/19 00:51:59;;;;;;;9.55;6.53;;;;;;;;;;5037735;28;20052;-60
2023/06/19 00:54:26;;;;;;;9.27;6.40;;;;;;;;;;5043715;28;20475;-62
2023/06/19 00:56:53;;;;;;;9.30;6.60;;;;;;;;;;5051944;28;20459;-60
2023/06/19 00:59:22;;;;;;;11.15;6.57;;;;;;;;;;5041561;28;20061;-62
2023/06/19 01:01:48;;;;;;;8.10;6.78;;;;;;;;;;5043062;28;20040;-61
2023/06/19 01:04:14;;;;;;;9.45;6.70;;;;;;;;;;5040683;28;20061;-61
2023/06/19 01:07:02;;;;;;;11.27;6.68;;;;;;;;;;5040803;28;20064;-61
2023/06/19 01:09:33;;;;;;;10.75;7.13;;;;;;;;;;5039774;28;20033;-60
2023/06/19 01:12:10;;;;;;;14.45;7.70;;;;;;;;;;5055964;28;20053;-59
2023/06/19 01:14:43;;;;;;;10.15;6.97;;;;;;;;;;5033081;28;20041;-61
2023/06/19 01:17:09;;;;;;;9.18;6.97;;;;;;;;;;5041512;28;20076;-59
2023/06/19 01:19:36;;;;;;;15.52;7.78;;;;;;;;;;5048780;28;20061;-60
2023/06/19 01:22:04;;;;;;;13.88;7.00;;;;;;;;;;5047068;28;20485;-59
2023/06/19 01:24:30;;;;;;;10.48;6.82;;;;;;;;;;5038340;28;20091;-63
2023/06/19 01:26:56;;;;;;;10.65;6.78;;;;;;;;;;5045849;28;20053;-62
2023/06/19 01:29:22;;;;;;;9.60;6.65;;;;;;;;;;5052861;28;20056;-61
2023/06/19 01:31:59;;;;;;;11.85;6.82;;;;;;;;;;5050310;28;20462;-65
2023/06/19 01:34:29;;;;;;;11.93;6.20;;;;;;;;;;5043860;28;20465;-60
2023/06/19 01:36:57;;;;;;;13.88;6.50;;;;;;;;;;5045718;28;20070;-59
2023/06/19 01:39:23;;;;;;;12.57;6.13;;;;;;;;;;5049690;28;20045;-59
2023/06/19 01:41:51;;;;;;;10.07;6.40;;;;;;;;;;5055275;28;20049;-60
2023/06/19 01:44:18;;;;;;;12.02;5.78;;;;;;;;;;5047166;28;20166;-65
2023/06/19 01:46:48;;;;;;;9.75;5.70;;;;;;;;;;5055855;28;20071;-58
2023/06/19 01:49:14;;;;;;;10.27;6.00;;;;;;;;;;5046905;28;20051;-63
2023/06/19 01:51:40;;;;;;;14.38;5.60;;;;;;;;;;5038772;28;20415;-58
2023/06/19 01:54:06;;;;;;;6.72;5.30;;;;;;;;;;5057117;28;20049;-60
2023/06/19 01:56:32;;;;;;;7.03;5.32;;;;;;;;;;5046018;28;20060;-59
2023/06/19 01:58:58;;;;;;;6.43;5.15;;;;;;;;;;5060689;28;20242;-61
2023/06/19 02:01:24;;;;;;;6.50;5.00;;;;;;;;;;5063995;28;20060;-60
2023/06/19 02:03:50;;;;;;;7.05;5.13;;;;;;;;;;5035186;28;20153;-66
2023/06/19 02:06:16;;;;;;;6.72;5.05;;;;;;;;;;5039041;28;20057;-59
2023/06/19 02:08:42;;;;;;;7.53;4.80;;;;;;;;;;5047163;28;20076;-58
2023/06/19 02:11:08;;;;;;;6.10;4.55;;;;;;;;;;5045632;28;20053;-60
2023/06/19 02:13:34;;;;;;;6.28;4.97;;;;;;;;;;5063308;28;20048;-59
2023/06/19 02:16:00;;;;;;;7.00;5.28;;;;;;;;;;5044675;28;20048;-60
2023/06/19 02:18:26;;;;;;;8.20;4.80;;;;;;;;;;5047042;28;20110;-59
2023/06/19 02:20:52;;;;;;;6.70;4.30;;;;;;;;;;5046063;28;20052;-58
2023/06/19 02:23:19;;;;;;;8.63;4.38;;;;;;;;;;5047519;28;20053;-60
2023/06/19 02:25:45;;;;;;;7.82;4.55;;;;;;;;;;5044739;28;20048;-60
2023/06/19 02:28:11;;;;;;;6.70;4.63;;;;;;;;;;5057056;28;20052;-59
2023/06/19 02:30:36;;;;;;;6.55;4.32;;;;;;;;;;5049121;28;20045;-59
2023/06/19 02:33:02;;;;;;;7.47;4.75;;;;;;;;;;5041889;28;20050;-60
2023/06/19 02:35:28;;;;;;;8.52;4.55;;;;;;;;;;5037557;28;20041;-61
2023/06/19 02:37:54;;;;;;;6.93;4.70;;;;;;;;;;5047324;28;20063;-58
2023/06/19 02:40:20;;;;;;;7.18;4.13;;;;;;;;;;5043107;28;20041;-60
2023/06/19 02:42:46;;;;;;;6.22;4.82;;;;;;;;;;5042740;28;20045;-61
2023/06/19 02:45:12;;;;;;;6.70;4.72;;;;;;;;;;5049092;28;20367;-61
2023/06/19 02:47:38;;;;;;;6.82;4.45;;;;;;;;;;5045982;28;20475;-60
2023/06/19 02:50:04;;;;;;;7.00;4.65;;;;;;;;;;5055307;28;20040;-56
2023/06/19 02:52:30;;;;;;;7.55;4.95;;;;;;;;;;5046774;28;20029;-58
2023/06/19 02:54:56;;;;;;;8.00;5.00;;;;;;;;;;5038079;28;20132;-59
2023/06/19 02:57:23;;;;;;;7.00;4.57;;;;;;;;;;5037861;28;20416;-58
2023/06/19 02:59:49;;;;;;;7.40;4.68;;;;;;;;;;5043819;28;20416;-59
2023/06/19 03:02:16;;;;;;;7.45;4.60;;;;;;;;;;5045628;28;20052;-62
2023/06/19 03:04:42;;;;;;;9.55;4.38;;;;;;;;;;5044766;28;20049;-59
2023/06/19 03:07:08;;;;;;;7.78;4.30;;;;;;;;;;5049568;28;20051;-59
2023/06/19 03:09:34;;;;;;;8.50;4.65;;;;;;;;;;5042592;28;20497;-60
2023/06/19 03:12:00;;;;;;;8.88;5.05;;;;;;;;;;5040846;28;20520;-59
2023/06/19 03:14:26;;;;;;;5.15;4.40;;;;;;;;;;5045825;28;20045;-59
2023/06/19 03:16:52;;;;;;;6.82;4.72;;;;;;;;;;5054256;28;20045;-59
2023/06/19 03:19:19;;;;;;;5.30;4.25;;;;;;;;;;5048412;28;20072;-60
2023/06/19 03:21:45;;;;;;;8.07;4.22;;;;;;;;;;5043001;28;20445;-62
2023/06/19 03:24:10;;;;;;;7.57;4.43;;;;;;;;;;5042160;28;20060;-59
2023/06/19 03:26:36;;;;;;;8.50;4.38;;;;;;;;;;5045760;28;20060;-60
2023/06/19 03:29:02;;;;;;;6.47;4.55;;;;;;;;;;5045655;28;20139;-62
2023/06/19 03:31:29;;;;;;;6.43;4.05;;;;;;;;;;5054018;28;20286;-61
2023/06/19 03:33:55;;;;;;;9.25;4.60;;;;;;;;;;5048435;28;20041;-63
2023/06/19 03:36:22;;;;;;;7.72;4.28;;;;;;;;;;5046374;28;20056;-63
2023/06/19 03:38:49;;;;;;;8.43;4.70;;;;;;;;;;5040920;28;20048;-60
2023/06/19 03:41:16;;;;;;;8.60;4.65;;;;;;;;;;5043813;28;20143;-62
2023/06/19 03:43:42;;;;;;;5.70;4.35;;;;;;;;;;5053568;28;20053;-60
2023/06/19 03:46:09;;;;;;;8.70;4.65;;;;;;;;;;5041996;28;20041;-61
2023/06/19 03:48:36;;;;;;;6.70;4.72;;;;;;;;;;5039574;28;20057;-66
2023/06/19 03:51:03;;;;;;;7.45;4.60;;;;;;;;;;5056518;28;20040;-63
2023/06/19 03:53:29;;;;;;;10.60;4.53;;;;;;;;;;5045460;28;20033;-60
2023/06/19 03:55:56;;;;;;;7.82;5.25;;;;;;;;;;5048995;28;20061;-60
2023/06/19 03:58:22;;;;;;;9.40;5.07;;;;;;;;;;5051443;28;20055;-62
2023/06/19 04:00:51;;;;;;;9.70;4.93;;;;;;;;;;5057381;28;20056;-60
2023/06/19 04:03:17;;;;;;;5.15;4.53;;;;;;;;;;5045552;28;20040;-62
2023/06/19 04:05:43;;;;;;;9.77;4.80;;;;;;;;;;5037426;28;20063;-62
2023/06/19 04:08:09;;;;;;;15.23;5.45;;;;;;;;;;5043539;28;20045;-60
2023/06/19 04:10:35;;;;;;;7.07;5.03;;;;;;;;;;5045653;28;20500;-61
2023/06/19 04:13:02;;;;;;;7.50;4.93;;;;;;;;;;5040692;28;20050;-61
2023/06/19 04:15:28;;;;;;;11.52;5.38;;;;;;;;;;5060315;28;20032;-60
2023/06/19 04:17:54;;;;;;;12.80;5.75;;;;;;;;;;5049823;28;20044;-60
2023/06/19 04:20:21;;;;;;;10.63;4.50;;;;;;;;;;5049201;28;20125;-61
2023/06/19 04:22:47;;;;;;;9.50;5.25;;;;;;;;;;5045141;28;20071;-62
2023/06/19 04:25:13;;;;;;;10.43;5.30;;;;;;;;;;5039446;28;20054;-62
2023/06/19 04:27:41;;;;;;;7.80;5.15;;;;;;;;;;5050177;28;20045;-61
2023/06/19 04:30:08;;;;;;;17.00;5.80;;;;;;;;;;5039127;28;20072;-62
2023/06/19 04:32:40;;;;;;;9.13;5.28;;;;;;;;;;5049914;28;20053;-62
2023/06/19 04:35:08;;;;;;;11.60;5.85;;;;;;;;;;5044961;28;20463;-63
2023/06/19 04:37:34;;;;;;;12.38;5.55;;;;;;;;;;5051886;28;20097;-62
2023/06/19 04:40:01;;;;;;;15.65;5.60;;;;;;;;;;5041636;28;20046;-62
2023/06/19 04:42:27;;;;;;;11.13;5.47;;;;;;;;;;5048250;28;20048;-62
2023/06/19 04:44:55;;;;;;;10.57;5.60;;;;;;;;;;5028554;28;20080;-61
2023/06/19 04:47:23;;;;;;;10.25;5.53;;;;;;;;;;5041629;28;20049;-64
2023/06/19 04:49:49;;;;;;;10.98;6.03;;;;;;;;;;5038539;28;20130;-62
2023/06/19 04:52:15;;;;;;;10.57;5.97;;;;;;;;;;5040708;28;20049;-62
2023/06/19 04:54:41;;;;;;;10.20;6.15;;;;;;;;;;5034282;28;20053;-63
2023/06/19 04:57:47;;;;;;;9.07;6.10;;;;;;;;;;5035152;28;20159;-63
2023/06/19 05:01:28;;;;;;;13.15;6.55;;;;;;;;;;5038260;28;20079;-62
2023/06/19 05:05:08;;;;;;;10.88;5.97;;;;;;;;;;5033840;28;20110;-61
2023/06/19 05:08:48;;;;;;;14.07;5.85;;;;;;;;;;5043319;28;20049;-61
2023/06/19 05:12:28;;;;;;;11.45;6.45;;;;;;;;;;5028893;28;20104;-59
2023/06/19 05:16:09;;;;;;;13.25;7.07;;;;;;;;;;5031555;28;20057;-60
2023/06/19 05:19:50;;;;;;;12.52;7.40;;;;;;;;;;5034062;28;20075;-61
2023/06/19 05:23:07;;;;;;;13.00;7.10;;;;;;;;;;5034843;28;21073;-60
2023/06/19 05:25:33;;;;;;;14.63;7.72;;;;;;;;;;5034553;28;20040;-61
2023/06/19 05:28:39;;;;;;;20.55;7.57;;;;;;;;;;5027111;28;20072;-59
2023/06/19 05:31:39;;;;;;;16.40;7.25;;;;;;;;;;5034483;28;20108;-59
2023/06/19 05:34:09;;;;;;;15.80;7.05;;;;;;;;;;5032723;28;20489;-61
2023/06/19 05:36:35;;;;;;;13.48;7.38;;;;;;;;;;5042093;28;20067;-61
2023/06/19 05:39:42;;;;;;;16.63;7.10;;;;;;;;;;5033152;28;20045;-62
2023/06/19 05:42:25;;;;;;;17.10;7.05;;;;;;;;;;5031642;28;20059;-59
2023/06/19 05:45:31;;;;;;;18.15;7.93;;;;;;;;;;5039150;28;20186;-63
2023/06/19 05:49:12;;;;;;;19.52;7.28;;;;;;;;;;5034459;28;20526;-63
2023/06/19 05:52:52;;;;;;;12.75;7.15;;;;;;;;;;5029566;28;20045;-60
2023/06/19 05:56:33;;;;;;;12.68;7.03;;;;;;;;;;5037934;28;20577;-61
2023/06/19 06:00:15;;;;;;;19.10;6.95;;;;;;;;;;5036898;28;20068;-62
2023/06/19 06:03:56;;;;;;;17.23;7.60;;;;;;;;;;5036786;28;20309;-59
2023/06/19 06:07:36;;;;;;;20.13;8.85;;;;;;;;;;5053505;28;20060;-62
2023/06/19 06:11:16;;;;;;;21.08;8.30;;;;;;;;;;5038903;28;20525;-62
2023/06/19 06:14:57;;;;;;;20.13;8.55;;;;;;;;;;5040130;28;20051;-61
2023/06/19 06:18:37;;;;;;;18.55;8.20;;;;;;;;;;5049626;28;20068;-61
2023/06/19 06:22:18;;;;;;;11.07;7.32;;;;;;;;;;5047063;28;20594;-62
2023/06/19 06:26:02;;;;;;;15.38;7.13;;;;;;;;;;5044927;28;20043;-63
2023/06/19 06:29:39;;;;;;;18.23;6.60;;;;;;;;;;5036076;28;20051;-62
2023/06/19 06:33:21;;;;;;;21.80;7.10;;;;;;;;;;5042652;28;20045;-63
2023/06/19 06:37:01;;;;;;;18.50;8.27;;;;;;;;;;5043165;28;20043;-61
2023/06/19 06:40:43;;;;;;;17.67;7.30;;;;;;;;;;5047382;28;20513;-66
2023/06/19 06:44:22;;;;;;;20.30;7.43;;;;;;;;;;5045301;28;20037;-62
2023/06/19 06:48:03;;;;;;;21.67;6.88;;;;;;;;;;5045415;28;20466;-65
2023/06/19 06:51:44;;;;;;;20.05;7.30;;;;;;;;;;5040254;28;20401;-64
2023/06/19 06:55:24;;;;;;;24.38;6.55;;;;;;;;;;5035429;28;20057;-62
2023/06/19 06:59:06;;;;;;;19.10;5.97;;;;;;;;;;5042380;28;20045;-63
2023/06/19 07:02:47;;;;;;;16.70;6.25;;;;;;;;;;5038471;28;20485;-62
2023/06/19 07:06:27;;;;;;;19.73;5.45;;;;;;;;;;5041189;28;20037;-63
2023/06/19 07:09:28;;;;;;;15.50;5.75;;;;;;;;;;5036855;28;20132;-61
2023/06/19 07:11:54;;;;;;;14.13;6.30;;;;;;;;;;5025572;28;20409;-64
2023/06/19 07:14:20;;;;;;;10.27;5.25;;;;;;;;;;5042330;28;20041;-66
2023/06/19 07:16:48;;;;;;;23.60;5.50;;;;;;;;;;5033141;28;20462;-63
2023/06/19 07:19:16;;;;;;;14.65;5.70;;;;;;;;;;5038203;28;20053;-64
2023/06/19 07:21:45;;;;;;;14.60;5.70;;;;;;;;;;5054239;28;20057;-62
2023/06/19 07:24:11;;;;;;;20.60;5.97;;;;;;;;;;5035036;28;21469;-64
2023/06/19 07:26:37;;;;;;;16.67;5.70;;;;;;;;;;5029789;28;20118;-63
2023/06/19 07:29:42;;;;;;;11.07;4.93;;;;;;;;;;5037261;28;20045;-62
2023/06/19 07:33:23;;;;;;;13.25;4.93;;;;;;;;;;5036125;28;20069;-64
2023/06/19 07:37:03;;;;;;;11.75;4.75;;;;;;;;;;5040750;28;20544;-63
2023/06/19 07:40:45;;;;;;;15.57;5.22;;;;;;;;;;5035771;28;20094;-66
2023/06/19 07:44:25;;;;;;;8.63;4.55;;;;;;;;;;5047550;28;20046;-62
2023/06/19 07:48:06;;;;;;;9.88;4.28;;;;;;;;;;5043842;28;20045;-63
2023/06/19 07:51:47;;;;;;;14.27;4.57;;;;;;;;;;5044201;28;20242;-62
2023/06/19 07:55:30;;;;;;;12.80;4.57;;;;;;;;;;5045326;28;20040;-63
2023/06/19 07:59:11;;;;;;;13.98;4.63;;;;;;;;;;5047272;28;20045;-61
2023/06/19 08:02:51;;;;;;;11.82;4.28;;;;;;;;;;5040634;28;20051;-67
2023/06/19 08:06:33;;;;;;;12.57;5.10;;;;;;;;;;5047990;28;20485;-65
2023/06/19 08:10:13;;;;;;;9.77;3.72;;;;;;;;;;5042228;28;20076;-62
2023/06/19 08:13:53;;;;;;;7.57;3.70;;;;;;;;;;5040269;28;20049;-63
2023/06/19 08:17:35;;;;;;;7.72;4.13;;;;;;;;;;5043887;28;20104;-63
2023/06/19 08:21:17;;;;;;;5.53;3.75;;;;;;;;;;5043383;28;20056;-63
2023/06/19 08:25:00;;;;;;;6.50;3.45;;;;;;;;;;5044051;28;20070;-64
2023/06/19 08:28:41;;;;;;;9.05;3.53;;;;;;;;;;5038812;28;20427;-66
2023/06/19 08:31:41;;;;;;;8.82;3.35;;;;;;;;;;5040753;28;20044;-63
2023/06/19 08:34:47;;;;;;;13.38;3.50;;;;;;;;;;5042483;28;20071;-67
2023/06/19 08:37:49;;;;;;;15.45;3.65;;;;;;;;;;5034727;28;20064;-64
2023/06/19 08:40:15;;;;;;;4.47;3.17;;;;;;;;;;5041085;28;20075;-64
2023/06/19 08:42:43;;;;;;;8.60;3.38;;;;;;;;;;5047715;28;20053;-63
2023/06/19 08:45:09;;;;;;;11.85;3.35;;;;;;;;;;5042072;28;20037;-64
2023/06/19 08:47:35;;;;;;;10.43;2.90;;;;;;;;;;5046273;28;20083;-64
2023/06/19 08:50:02;;;;;;;9.40;3.40;;;;;;;;;;5042171;28;20511;-66
2023/06/19 08:52:27;;;;;;;6.88;3.33;;;;;;;;;;5028877;28;20060;-64
2023/06/19 08:54:54;;;;;;;8.68;3.10;;;;;;;;;;5038016;28;20389;-65
2023/06/19 08:57:21;;;;;;;9.00;3.25;;;;;;;;;;5042250;28;20095;-66
2023/06/19 08:59:50;;;;;;;8.65;3.20;;;;;;;;;;5045114;28;20098;-62
2023/06/19 09:02:16;;;;;;;5.40;3.15;;;;;;;;;;5057142;28;20042;-66
2023/06/19 09:04:43;;;;;;;8.00;3.35;;;;;;;;;;5040994;28;20484;-65
2023/06/19 09:07:12;;;;;;;8.82;3.38;;;;;;;;;;5058508;28;20110;-64
2023/06/19 09:09:45;;;;;;;7.43;3.08;;;;;;;;;;5038977;28;20427;-64
2023/06/19 09:12:13;;;;;;;7.05;3.38;;;;;;;;;;5043642;28;20255;-64
2023/06/19 09:14:40;;;;;;;7.07;3.25;;;;;;;;;;5040392;28;20049;-63
2023/06/19 09:17:10;;;;;;;5.55;3.13;;;;;;;;;;5038767;28;20037;-64
2023/06/19 09:19:50;;;;;;;10.98;3.38;;;;;;;;;;5038511;28;20059;-64
2023/06/19 09:22:20;;;;;;;10.30;3.70;;;;;;;;;;5042123;28;20135;-63
2023/06/19 09:24:47;;;;;;;11.63;4.10;;;;;;;;;;5038857;28;20056;-64
2023/06/19 09:27:18;;;;;;;8.18;3.40;;;;;;;;;;5047584;28;20497;-62
2023/06/19 09:29:47;;;;;;;6.07;3.30;;;;;;;;;;5041907;28;20056;-64
2023/06/19 09:32:22;;;;;;;9.15;3.33;;;;;;;;;;5041871;28;20052;-64
2023/06/19 09:34:54;;;;;;;8.40;3.55;;;;;;;;;;5037981;28;20091;-66
2023/06/19 09:37:26;;;;;;;7.75;3.35;;;;;;;;;;5042993;28;20112;-64
2023/06/19 09:39:58;;;;;;;10.90;3.50;;;;;;;;;;5043972;28;20048;-64
2023/06/19 09:42:34;;;;;;;6.47;3.15;;;;;;;;;;5043937;28;20128;-62
2023/06/19 09:45:04;;;;;;;7.97;4.10;;;;;;;;;;5040342;28;20045;-65
2023/06/19 09:47:35;;;;;;;11.75;3.75;;;;;;;;;;5047317;28;20481;-63
2023/06/19 09:50:02;;;;;;;9.50;3.58;;;;;;;;;;5036743;28;20064;-66
2023/06/19 09:52:29;;;;;;;10.43;3.38;;;;;;;;;;5038003;28;20057;-63
2023/06/19 09:55:00;;;;;;;5.85;3.10;;;;;;;;;;5036830;28;20296;-64
2023/06/19 09:57:26;;;;;;;6.05;2.90;;;;;;;;;;5040667;28;20835;-64
2023/06/19 09:59:58;;;;;;;9.20;3.38;;;;;;;;;;5047988;28;20051;-63
2023/06/19 10:02:27;;;;;;;11.90;3.65;;;;;;;;;;5036233;28;20038;-65
2023/06/19 10:04:55;;;;;;;6.28;3.25;;;;;;;;;;5042183;28;20466;-63
2023/06/19 10:07:22;;;;;;;8.63;3.35;;;;;;;;;;5040006;28;20131;-64
2023/06/19 10:10:02;;;;;;;9.10;3.42;;;;;;;;;;5038151;28;20065;-64
2023/06/19 10:12:47;;;;;;;11.38;3.33;;;;;;;;;;5042124;28;20061;-63
2023/06/19 10:15:21;;;;;;;5.90;3.10;;;;;;;;;;5046379;28;20045;-64
2023/06/19 10:17:50;;;;;;;8.02;3.05;;;;;;;;;;5038810;28;20087;-65
2023/06/19 10:20:31;;;;;;;10.50;3.72;;;;;;;;;;5039216;28;20067;-66
2023/06/19 10:23:20;;;;;;;10.25;3.47;;;;;;;;;;5044649;28;20053;-65
2023/06/19 10:25:49;;;;;;;10.38;3.63;;;;;;;;;;5031744;28;20071;-65
2023/06/19 10:28:21;;;;;;;21.27;4.20;;;;;;;;;;5030656;28;20592;-64
2023/06/19 10:31:01;;;;;;;6.13;3.50;;;;;;;;;;5034139;28;20053;-63
2023/06/19 10:33:36;;;;;;;7.68;3.60;;;;;;;;;;5046911;28;20750;-65
2023/06/19 10:36:31;;;;;;;6.72;3.33;;;;;;;;;;5037578;28;20052;-63
2023/06/19 10:38:56;;;;;;;7.05;3.47;;;;;;;;;;5064971;28;20468;-63
2023/06/19 10:41:26;;;;;;;8.30;3.70;;;;;;;;;;5033567;28;20467;-68
2023/06/19 10:44:14;;;;;;;8.30;3.88;;;;;;;;;;5043573;28;20075;-64
2023/06/19 10:46:41;;;;;;;9.98;3.85;;;;;;;;;;5040254;28;20464;-65
2023/06/19 10:49:10;;;;;;;9.57;3.83;;;;;;;;;;5036747;28;20079;-67
2023/06/19 10:51:37;;;;;;;12.20;4.10;;;;;;;;;;5041098;28;20049;-64
2023/06/19 10:54:04;;;;;;;13.02;4.32;;;;;;;;;;5037404;28;20169;-67
2023/06/19 10:56:30;;;;;;;12.60;4.10;;;;;;;;;;5042951;28;20044;-66
2023/06/19 10:59:19;;;;;;;13.38;4.45;;;;;;;;;;5037446;28;20083;-65
2023/06/19 11:01:52;;;;;;;18.30;4.63;;;;;;;;;;5034388;28;20098;-64
2023/06/19 11:04:28;;;;;;;12.52;4.57;;;;;;;;;;5038643;28;20140;-66
2023/06/19 11:07:34;;;;;;;10.95;4.65;;;;;;;;;;5043269;28;20416;-66
2023/06/19 11:11:14;;;;;;;14.52;4.82;;;;;;;;;;5043218;28;20045;-65
2023/06/19 11:14:55;;;;;;;14.10;4.70;;;;;;;;;;5045702;28;20707;-65
2023/06/19 11:18:36;;;;;;;16.70;4.75;;;;;;;;;;5034270;28;20393;-64
2023/06/19 11:22:17;;;;;;;12.88;5.28;;;;;;;;;;5045613;28;20190;-69
2023/06/19 11:25:57;;;;;;;11.70;4.82;;;;;;;;;;5041123;28;20048;-63
2023/06/19 11:29:18;;;;;;;19.27;5.15;;;;;;;;;;5046348;28;20405;-65
2023/06/19 11:33:00;;;;;;;16.70;5.20;;;;;;;;;;5047997;28;20374;-64
2023/06/19 11:36:40;;;;;;;15.38;5.35;;;;;;;;;;5039597;28;20041;-64
2023/06/19 11:40:23;;;;;;;17.00;5.78;;;;;;;;;;5048543;28;20409;-67
2023/06/19 11:44:03;;;;;;;16.77;5.63;;;;;;;;;;5052601;28;20045;-66
2023/06/19 11:47:44;;;;;;;17.50;5.55;;;;;;;;;;5041382;28;20041;-63
2023/06/19 11:51:24;;;;;;;22.13;6.10;;;;;;;;;;5044588;28;20053;-63
2023/06/19 11:55:05;;;;;;;23.45;5.93;;;;;;;;;;5042440;28;20186;-64
2023/06/19 11:58:45;;;;;;;24.17;6.43;;;;;;;;;;5047787;28;20519;-63
2023/06/19 12:02:25;;;;;;;14.45;4.95;;;;;;;;;;5045286;28;20076;-65
2023/06/19 12:06:05;;;;;;;14.95;6.05;;;;;;;;;;5035200;28;20416;-64
2023/06/19 12:09:46;;;;;;;17.38;5.45;;;;;;;;;;5044465;28;20090;-65
2023/06/19 12:13:27;;;;;;;20.52;6.05;;;;;;;;;;5045892;28;20627;-66
2023/06/19 12:17:08;;;;;;;21.40;6.13;;;;;;;;;;5040012;28;20055;-65
2023/06/19 12:20:48;;;;;;;17.42;5.63;;;;;;;;;;5035412;28;20045;-62
2023/06/19 12:24:30;;;;;;;20.48;5.75;;;;;;;;;;5036295;28;20052;-66
2023/06/19 12:28:11;;;;;;;15.20;5.45;;;;;;;;;;5051006;28;20130;-63
2023/06/19 12:31:53;;;;;;;19.45;5.07;;;;;;;;;;5045808;28;20434;-62
2023/06/19 12:35:33;;;;;;;18.63;5.25;;;;;;;;;;5048303;28;20405;-63
2023/06/19 12:39:16;;;;;;;12.05;5.35;;;;;;;;;;5047784;28;20083;-63
2023/06/19 12:42:55;;;;;;;18.80;5.97;;;;;;;;;;5041306;28;20132;-65
2023/06/19 12:46:35;;;;;;;20.65;5.18;;;;;;;;;;5046991;28;20408;-63
2023/06/19 12:50:15;;;;;;;15.80;4.85;;;;;;;;;;5042788;28;20049;-65
2023/06/19 12:53:57;;;;;;;15.10;5.82;;;;;;;;;;5047527;28;20400;-63
2023/06/19 12:57:37;;;;;;;17.65;5.43;;;;;;;;;;5038708;28;20489;-64
2023/06/19 13:01:19;;;;;;;18.52;4.90;;;;;;;;;;5046323;28;20228;-65
2023/06/19 13:05:00;;;;;;;14.10;5.03;;;;;;;;;;5045359;28;20196;-64
2023/06/19 13:08:40;;;;;;;19.40;5.70;;;;;;;;;;5042904;28;20037;-64
2023/06/19 13:12:21;;;;;;;13.63;5.22;;;;;;;;;;5046504;28;20053;-63
2023/06/19 13:16:01;;;;;;;21.83;5.40;;;;;;;;;;5038492;28;20091;-64
2023/06/19 13:19:42;;;;;;;22.83;5.45;;;;;;;;;;5045678;28;20040;-65
2023/06/19 13:23:23;;;;;;;16.40;5.65;;;;;;;;;;5041449;28;20454;-65
2023/06/19 13:27:03;;;;;;;22.17;5.00;;;;;;;;;;5039250;28;20041;-64
2023/06/19 13:30:44;;;;;;;17.55;5.50;;;;;;;;;;5038689;28;20045;-65
2023/06/19 13:34:24;;;;;;;18.15;5.47;;;;;;;;;;5045078;28;20037;-70
2023/06/19 13:38:05;;;;;;;16.65;5.00;;;;;;;;;;5043648;28;20053;-65
2023/06/19 13:41:45;;;;;;;16.38;5.22;;;;;;;;;;5051403;28;20079;-66
2023/06/19 13:45:26;;;;;;;14.63;5.07;;;;;;;;;;5044605;28;20116;-66
2023/06/19 13:49:06;;;;;;;20.02;5.07;;;;;;;;;;5040140;28;20045;-64
2023/06/19 13:52:46;;;;;;;18.65;5.20;;;;;;;;;;5047953;28;20087;-66
2023/06/19 13:56:27;;;;;;;17.10;5.00;;;;;;;;;;5042967;28;20048;-67
2023/06/19 14:00:07;;;;;;;13.98;4.40;;;;;;;;;;5043275;28;20408;-66
2023/06/19 14:03:47;;;;;;;12.18;5.05;;;;;;;;;;5046524;28;20476;-67
2023/06/19 14:07:28;;;;;;;15.68;4.95;;;;;;;;;;5040878;28;20047;-67
2023/06/19 14:11:08;;;;;;;14.43;4.60;;;;;;;;;;5042988;28;20041;-68
2023/06/19 14:14:52;;;;;;;14.18;4.15;;;;;;;;;;5045262;28;20052;-67
2023/06/19 14:18:33;;;;;;;17.88;4.95;;;;;;;;;;5042331;28;20044;-66
2023/06/19 14:22:12;;;;;;;16.30;4.38;;;;;;;;;;5054633;28;20492;-67
2023/06/19 14:25:53;;;;;;;15.75;4.25;;;;;;;;;;5036307;28;20049;-66
2023/06/19 14:29:33;;;;;;;11.07;4.35;;;;;;;;;;5041274;28;20045;-66
2023/06/19 14:33:16;;;;;;;15.25;4.28;;;;;;;;;;5046219;28;20037;-68
2023/06/19 14:37:00;;;;;;;15.43;4.28;;;;;;;;;;5042890;28;20651;-67
2023/06/19 14:40:42;;;;;;;16.48;4.07;;;;;;;;;;5044243;28;20048;-66
2023/06/19 14:44:22;;;;;;;16.30;4.10;;;;;;;;;;5041362;28;20102;-66
2023/06/19 14:48:03;;;;;;;15.48;4.65;;;;;;;;;;5039550;28;20523;-66
2023/06/19 14:51:44;;;;;;;13.48;4.07;;;;;;;;;;5035904;28;20069;-68
2023/06/19 14:55:24;;;;;;;11.73;3.80;;;;;;;;;;5037540;28;20491;-67
2023/06/19 14:59:05;;;;;;;11.43;4.05;;;;;;;;;;5039565;28;20053;-65
2023/06/19 15:02:45;;;;;;;18.15;4.25;;;;;;;;;;5039355;28;20510;-66
2023/06/19 15:06:26;;;;;;;12.82;4.30;;;;;;;;;;5045887;28;20072;-68
2023/06/19 15:10:07;;;;;;;14.77;4.05;;;;;;;;;;5053847;28;20079;-64
2023/06/19 15:13:47;;;;;;;13.25;3.67;;;;;;;;;;5041750;28;20049;-64
2023/06/19 15:17:29;;;;;;;15.18;3.55;;;;;;;;;;5044167;28;20063;-66
2023/06/19 15:21:09;;;;;;;7.13;3.35;;;;;;;;;;5036468;28;20037;-63
2023/06/19 15:24:49;;;;;;;15.50;3.42;;;;;;;;;;5036674;28;20507;-69
2023/06/19 15:28:30;;;;;;;19.23;4.28;;;;;;;;;;5031171;28;20056;-66
2023/06/19 15:32:10;;;;;;;13.70;3.90;;;;;;;;;;5035417;28;20496;-65
2023/06/19 15:35:50;;;;;;;11.60;3.90;;;;;;;;;;5034893;28;20153;-64
2023/06/19 15:39:31;;;;;;;12.60;3.72;;;;;;;;;;5037650;28;20554;-66
2023/06/19 15:43:11;;;;;;;12.00;3.63;;;;;;;;;;5036590;28;20079;-63
2023/06/19 15:46:52;;;;;;;10.52;4.32;;;;;;;;;;5040198;28;20392;-64
2023/06/19 15:50:35;;;;;;;10.32;3.85;;;;;;;;;;5033327;28;20128;-64
2023/06/19 15:54:16;;;;;;;16.80;3.70;;;;;;;;;;5035899;28;20053;-65
2023/06/19 15:57:56;;;;;;;7.05;3.38;;;;;;;;;;5042126;28;20154;-63
2023/06/19 16:01:37;;;;;;;10.60;4.18;;;;;;;;;;5035156;28;20087;-63
2023/06/19 16:05:17;;;;;;;10.73;3.65;;;;;;;;;;5035133;28;20080;-64
2023/06/19 16:08:57;;;;;;;12.55;3.80;;;;;;;;;;5039390;28;20048;-63
2023/06/19 16:12:38;;;;;;;10.38;3.83;;;;;;;;;;5041793;28;20064;-65
2023/06/19 16:16:18;;;;;;;13.40;4.00;;;;;;;;;;5045489;28;20040;-65
2023/06/19 16:19:58;;;;;;;13.95;4.18;;;;;;;;;;5041114;28;20883;-65
2023/06/19 16:23:40;;;;;;;8.95;4.07;;;;;;;;;;5040937;28;20408;-67
2023/06/19 16:27:19;;;;;;;9.65;4.10;;;;;;;;;;5033800;28;20053;-64
2023/06/19 16:30:59;;;;;;;13.07;4.53;;;;;;;;;;5039888;28;20084;-65
2023/06/19 16:34:40;;;;;;;14.07;4.60;;;;;;;;;;5044634;28;20060;-67
2023/06/19 16:38:20;;;;;;;13.38;4.20;;;;;;;;;;5040742;28;20041;-64
2023/06/19 16:42:00;;;;;;;11.18;4.18;;;;;;;;;;5042305;28;20060;-66
2023/06/19 16:45:41;;;;;;;13.02;3.70;;;;;;;;;;5038404;28;20049;-67
2023/06/19 16:49:22;;;;;;;8.00;3.55;;;;;;;;;;5038715;28;20053;-64
2023/06/19 16:53:05;;;;;;;13.63;3.50;;;;;;;;;;5039592;28;20037;-64
2023/06/19 16:56:44;;;;;;;8.98;3.50;;;;;;;;;;5037260;28;20049;-66
2023/06/19 17:00:25;;;;;;;13.82;4.00;;;;;;;;;;5037840;28;20056;-64
2023/06/19 17:04:05;;;;;;;12.38;4.10;;;;;;;;;;5035653;28;20045;-65
2023/06/19 17:07:45;;;;;;;12.93;4.30;;;;;;;;;;5041369;28;20508;-65
2023/06/19 17:11:26;;;;;;;11.13;3.92;;;;;;;;;;5041045;28;20080;-64
2023/06/19 17:15:06;;;;;;;11.75;3.70;;;;;;;;;;5033811;28;20045;-66
2023/06/19 17:18:46;;;;;;;12.50;4.22;;;;;;;;;;5040768;28;20416;-63
2023/06/19 17:22:27;;;;;;;9.95;3.60;;;;;;;;;;5042311;28;20044;-68
2023/06/19 17:26:07;;;;;;;11.57;3.90;;;;;;;;;;5036519;28;20594;-65
2023/06/19 17:29:47;;;;;;;11.95;3.95;;;;;;;;;;5039072;28;20056;-65
2023/06/19 17:33:28;;;;;;;9.38;3.70;;;;;;;;;;5041593;28;20428;-66
2023/06/19 17:37:08;;;;;;;10.88;4.28;;;;;;;;;;5044090;28;20320;-66
2023/06/19 17:40:48;;;;;;;12.55;4.00;;;;;;;;;;5042201;28;20048;-65
2023/06/19 17:44:30;;;;;;;10.13;3.75;;;;;;;;;;5029961;28;20069;-66
2023/06/19 17:48:09;;;;;;;8.65;3.58;;;;;;;;;;5038017;28;20052;-66
2023/06/19 17:51:49;;;;;;;12.70;3.95;;;;;;;;;;5034805;28;20056;-65
2023/06/19 17:55:30;;;;;;;10.23;4.00;;;;;;;;;;5033109;28;20041;-69